Iron Mountain, MI

12:51 AM CDT on August 24, 2017 (GMT -0500)
North Side | | Change Station
Active Advisory: Frost Advisory

Elev 1060 ft 45.83 °N, 88.06 °W | Updated 2 seconds ago

Clear
Clear
49.1 °F
Feels Like 49 °F
N
0.0
Wind Variable Wind from NNE
Gusts 0.7 mph

Today
High -- | Low -- °F
--% Chance of Precip.
Yesterday
High -- | Low -- °F
Precip. -- in
Pressure 30.10 in
Visibility 10.0 miles
Clouds Clear
Windchill 49 °F
Dew Point 41 °F
Humidity 73%
Rainfall 0.00 in
Snow Depth Not available.
6:03 AM 7:44 PM
Waxing Crescent, 7% visible
METAR KIMT 240454Z AUTO 35004KT 10SM CLR 07/04 A3008 RMK AO2 SLP192 T00720039
Pressure 30.10 in
Visibility 10.0 miles
Clouds Clear
Windchill 49 °F
Dew Point 41 °F
Humidity 73%
Rainfall 0.00 in
Snow Depth Not available.
6:03 AM 7:44 PM
Waxing Crescent, 7% visible
METAR KIMT 240454Z AUTO 35004KT 10SM CLR 07/04 A3008 RMK AO2 SLP192 T00720039

Get Your Daily Forecast Email!

Thanks for signing up!

Be on the lookout for a verification email in your inbox.

You'll start receiving severe weather alerts in your inbox..

×

10-Day Weather Forecast

Almanac

Astronomy

Aug. 24, 2017 Rise Set
Actual Time
Civil Twilight
Nautical Twilight
Astronomical Twilight
Moon
Length of Visible Light
Length of Day
Tomorrow will be .
, % of the Moon is Illuminated

Today's Extremes

State Highs State Lows

Community

WunderPhotos

Category 6

Welcome to Category 6. This is the collective home for Weather Underground's featured writeups by Dr. Jeff Masters (right), Bob Henson (left), Chris Burt, and other regular contributors.

Nearby

Air Quality

  Air Quality AQ Index Pollutant
Not available.

Snow Depth

Station Depth Elevation

Earthquake Activity

City Distance Mag. Time & Date
Minimum magnitude displayed is 2.5.

Coastal Water Temperatures

Place Temperature

Stations

Nearby Weather Stations

Station Location Temp. Windchill Dew Point Humidity Wind Precip. Elev Updated Type
                   

Watches & Warnings

Frost Advisory
Issued: 9:29 PM CDT Aug. 23, 2017 – National Weather Service

... Frost advisory remains in effect from 2 am EDT /1 am CDT/ to
9 am EDT /8 am CDT/ Thursday...

Hazardous weather:

* frost will develop tonight as temperatures drop into the low
   to mid 30s over inland portions of western Upper Michigan.

Impacts:

* sensitive vegetation will be susceptible to damage. Cover
   your plants or bring them indoors.

Precautionary/preparedness actions:

* a frost advisory means that widespread frost is expected.

* Prepare, plan, and stay informed. Visit www.Weather.Gov/MQT



Beachler